Time;durP1;ratioP1;P1;durP2;ratioP2;P2;SDS_P1;SDS_P2;PMS_P1;PMS_P2;Temp;Humidity;BMP_temperature;BMP_pressure;BME280_temperature;BME280_humidity;BME280_pressure;Samples;Min_cycle;Max_cycle;Signal;HPM_P1;HPM_P2
2023/10/28 00:01:03;;;;;;;19.45;9.38;;;;;;;7.97;100.00;99321.03;5087107;28;20031;-74
2023/10/28 00:03:29;;;;;;;17.48;8.90;;;;;;;7.98;100.00;99325.41;5089565;28;20044;-75
2023/10/28 00:05:55;;;;;;;15.55;8.68;;;;;;;8.04;100.00;99315.34;5082258;28;20027;-74
2023/10/28 00:08:20;;;;;;;14.75;8.07;;;;;;;8.01;100.00;99316.38;5075123;28;20027;-74
2023/10/28 00:10:48;;;;;;;17.83;7.97;;;;;;;8.10;100.00;99322.88;5086621;28;20355;-73
2023/10/28 00:13:14;;;;;;;16.58;7.82;;;;;;;8.13;100.00;99330.63;5074295;28;20369;-75
2023/10/28 00:15:39;;;;;;;17.70;7.13;;;;;;;8.17;100.00;99318.88;5072944;28;20063;-75
2023/10/28 00:18:05;;;;;;;13.30;7.22;;;;;;;8.23;100.00;99329.94;5081343;28;20513;-75
2023/10/28 00:20:32;;;;;;;15.07;7.13;;;;;;;8.24;100.00;99330.81;5071522;28;20098;-75
2023/10/28 00:22:57;;;;;;;15.75;7.00;;;;;;;8.26;100.00;99320.94;5072236;28;20016;-75
2023/10/28 00:25:28;;;;;;;14.52;6.68;;;;;;;8.30;100.00;99325.09;5083787;28;20127;-75
2023/10/28 00:27:55;;;;;;;14.98;6.68;;;;;;;8.28;100.00;99308.44;5089707;28;20286;-74
2023/10/28 00:30:23;;;;;;;14.88;6.43;;;;;;;8.35;100.00;99322.13;5088377;28;20017;-74
2023/10/28 00:32:50;;;;;;;12.98;6.13;;;;;;;8.33;100.00;99318.75;5083709;28;20110;-74
2023/10/28 00:35:16;;;;;;;14.50;6.35;;;;;;;8.38;100.00;99328.13;5080157;28;20073;-74
2023/10/28 00:37:42;;;;;;;11.23;5.68;;;;;;;8.40;100.00;99320.94;5085785;28;20031;-73
2023/10/28 00:40:08;;;;;;;12.98;5.78;;;;;;;8.38;100.00;99320.16;5079906;28;20043;-73
2023/10/28 00:42:38;;;;;;;11.02;5.30;;;;;;;8.43;100.00;99333.97;5094376;28;20260;-73
2023/10/28 00:45:05;;;;;;;10.35;4.82;;;;;;;8.43;100.00;99325.16;5088887;28;20024;-74
2023/10/28 00:47:33;;;;;;;12.98;5.43;;;;;;;8.41;100.00;99324.41;5092390;28;20409;-73
2023/10/28 00:49:59;;;;;;;10.80;4.70;;;;;;;8.41;100.00;99324.41;5079657;28;20024;-75
2023/10/28 00:52:26;;;;;;;10.32;4.88;;;;;;;8.42;100.00;99324.31;5078793;28;20043;-73
2023/10/28 00:54:53;;;;;;;12.98;5.32;;;;;;;8.42;100.00;99326.13;5094566;28;20484;-74
2023/10/28 00:57:19;;;;;;;9.13;4.53;;;;;;;8.44;100.00;99327.72;5088299;28;20038;-75
2023/10/28 00:59:45;;;;;;;8.75;4.55;;;;;;;8.44;100.00;99325.06;5081423;28;20094;-74
2023/10/28 01:02:11;;;;;;;6.70;3.97;;;;;;;8.41;100.00;99329.72;5083912;28;20111;-75
2023/10/28 01:04:37;;;;;;;9.38;4.00;;;;;;;8.40;100.00;99320.03;5083340;28;20163;-73
2023/10/28 01:07:03;;;;;;;9.15;4.13;;;;;;;8.38;100.00;99317.50;5077416;28;20561;-73
2023/10/28 01:09:28;;;;;;;8.82;4.40;;;;;;;8.42;100.00;99326.13;5081144;28;20066;-75
2023/10/28 01:11:54;;;;;;;7.43;4.25;;;;;;;8.45;100.00;99331.22;5085290;28;20028;-74
2023/10/28 01:14:20;;;;;;;10.10;4.43;;;;;;;8.42;100.00;99332.25;5085768;28;20410;-74
2023/10/28 01:16:45;;;;;;;7.35;4.00;;;;;;;8.44;100.00;99326.84;5089468;28;20103;-74
2023/10/28 01:19:11;;;;;;;7.25;3.58;;;;;;;8.44;100.00;99324.19;5083825;28;20545;-74
2023/10/28 01:21:37;;;;;;;10.23;3.85;;;;;;;8.42;100.00;99321.66;5088216;28;20587;-74
2023/10/28 01:24:03;;;;;;;7.57;3.60;;;;;;;8.45;100.00;99326.78;5085534;28;20085;-74
2023/10/28 01:26:28;;;;;;;10.10;4.13;;;;;;;8.46;100.00;99324.97;5088443;28;20062;-74
2023/10/28 01:28:55;;;;;;;8.13;4.25;;;;;;;8.45;100.00;99320.63;5073014;28;20095;-76
2023/10/28 01:31:21;;;;;;;10.48;3.88;;;;;;;8.46;100.00;99328.47;5085440;28;20038;-75
2023/10/28 01:33:48;;;;;;;8.57;3.40;;;;;;;8.41;100.00;99324.41;5088568;28;20031;-75
2023/10/28 01:36:15;;;;;;;9.18;3.97;;;;;;;8.43;100.00;99320.69;5077892;28;20248;-75
2023/10/28 01:38:42;;;;;;;7.25;3.40;;;;;;;8.41;100.00;99327.06;5080649;28;20027;-74
2023/10/28 01:41:08;;;;;;;6.20;3.75;;;;;;;8.39;100.00;99329.81;5083050;28;20482;-76
2023/10/28 01:43:33;;;;;;;6.78;3.38;;;;;;;8.40;100.00;99328.88;5076335;28;20024;-75
2023/10/28 01:45:58;;;;;;;6.95;3.60;;;;;;;8.39;100.00;99328.97;5065459;28;20575;-75
2023/10/28 01:48:24;;;;;;;9.15;3.30;;;;;;;8.40;100.00;99333.31;5094012;28;20066;-75
2023/10/28 01:50:49;;;;;;;7.82;3.40;;;;;;;8.38;100.00;99328.13;5092355;28;20029;-76
2023/10/28 01:53:14;;;;;;;5.38;3.40;;;;;;;8.38;100.00;99329.91;5086111;28;20086;-74
2023/10/28 01:55:40;;;;;;;6.30;3.65;;;;;;;8.37;100.00;99325.56;5080091;28;20023;-74
2023/10/28 01:58:06;;;;;;;8.35;3.10;;;;;;;8.35;100.00;99333.56;5075923;28;20024;-73
2023/10/28 02:00:31;;;;;;;6.90;3.13;;;;;;;8.35;100.00;99327.44;5088517;28;20112;-73
2023/10/28 02:02:57;;;;;;;6.05;2.65;;;;;;;8.34;100.00;99325.75;5086377;28;20152;-74
2023/10/28 02:05:23;;;;;;;5.03;3.13;;;;;;;8.32;100.00;99325.84;5078795;28;20097;-73
2023/10/28 02:07:48;;;;;;;7.38;3.30;;;;;;;8.31;100.00;99328.56;5069822;28;20478;-73
2023/10/28 02:10:14;;;;;;;5.15;2.90;;;;;;;8.30;100.00;99326.88;5081656;28;20109;-73
2023/10/28 02:12:39;;;;;;;4.95;2.60;;;;;;;8.31;100.00;99315.31;5085657;28;20483;-74
2023/10/28 02:15:08;;;;;;;3.22;2.40;;;;;;;8.26;100.00;99315.63;5091080;28;20477;-75
2023/10/28 02:17:35;;;;;;;5.45;2.20;;;;;;;8.30;100.00;99321.59;5084521;28;20109;-72
2023/10/28 02:20:01;;;;;;;4.47;2.55;;;;;;;8.26;100.00;99312.97;5096101;28;20051;-74
2023/10/28 02:22:26;;;;;;;5.85;2.97;;;;;;;8.28;100.00;99320.81;5069901;28;20478;-73
2023/10/28 02:24:51;;;;;;;7.28;2.50;;;;;;;8.22;100.00;99311.47;5072707;28;20024;-73
2023/10/28 02:27:17;;;;;;;5.53;2.95;;;;;;;8.25;100.00;99313.94;5079231;28;21544;-75
2023/10/28 02:29:43;;;;;;;4.75;2.20;;;;;;;8.26;100.00;99320.09;5076040;28;20084;-75
2023/10/28 02:32:09;;;;;;;3.15;2.00;;;;;;;8.26;100.00;99325.38;5072320;28;20034;-73
2023/10/28 02:34:36;;;;;;;3.97;2.33;;;;;;;8.27;100.00;99324.44;5089376;28;20089;-74
2023/10/28 02:37:01;;;;;;;4.07;2.30;;;;;;;8.25;100.00;99324.53;5078087;28;20062;-74
2023/10/28 02:39:27;;;;;;;3.63;2.30;;;;;;;8.25;100.00;99319.25;5089441;28;20485;-75
2023/10/28 02:41:53;;;;;;;3.67;2.10;;;;;;;8.21;100.00;99310.63;5077366;28;20035;-73
2023/10/28 02:44:19;;;;;;;4.57;2.65;;;;;;;8.26;100.00;99320.09;5080689;28;20073;-74
2023/10/28 02:46:45;;;;;;;4.00;2.22;;;;;;;8.22;100.00;99308.84;5084516;28;20075;-74
2023/10/28 02:49:11;;;;;;;3.58;2.28;;;;;;;8.18;100.00;99305.53;5076975;28;20024;-74
2023/10/28 02:51:37;;;;;;;2.72;2.03;;;;;;;8.18;100.00;99304.69;5083092;28;20119;-74
2023/10/28 02:54:03;;;;;;;3.88;2.40;;;;;;;8.24;100.00;99322.84;5076921;28;20107;-73
2023/10/28 02:56:28;;;;;;;3.72;2.20;;;;;;;8.24;100.00;99322.84;5086211;28;20047;-75
2023/10/28 02:58:54;;;;;;;5.30;2.42;;;;;;;8.18;100.00;99309.97;5082702;28;20034;-74
2023/10/28 03:01:19;;;;;;;4.47;2.58;;;;;;;8.26;100.00;99325.38;5080678;28;20043;-74
2023/10/28 03:03:45;;;;;;;4.10;2.70;;;;;;;8.25;100.00;99329.84;5070033;28;20038;-75
2023/10/28 03:06:11;;;;;;;7.15;3.20;;;;;;;8.21;100.00;99326.53;5084086;28;20020;-75
2023/10/28 03:08:37;;;;;;;5.13;3.10;;;;;;;8.24;100.00;99334.31;5082455;28;20088;-75
2023/10/28 03:11:02;;;;;;;4.18;2.83;;;;;;;8.18;100.00;99326.72;5087032;28;20453;-74
2023/10/28 03:13:28;;;;;;;6.22;3.22;;;;;;;8.11;100.00;99329.88;5100788;28;20386;-75
2023/10/28 03:15:53;;;;;;;5.30;3.50;;;;;;;8.06;100.00;99327.53;5096766;28;20155;-75
2023/10/28 03:18:19;;;;;;;5.47;3.30;;;;;;;7.98;100.00;99328.03;5078269;28;20032;-75
2023/10/28 03:20:44;;;;;;;4.60;3.42;;;;;;;7.94;100.00;99323.00;5074750;28;20046;-73
2023/10/28 03:23:10;;;;;;;4.55;3.20;;;;;;;7.86;100.00;99327.94;5088891;28;20478;-75
2023/10/28 03:25:35;;;;;;;4.65;3.30;;;;;;;7.81;100.00;99324.75;5084086;28;20032;-75
2023/10/28 03:28:00;;;;;;;4.47;3.42;;;;;;;7.77;100.00;99324.09;5070941;28;21528;-75
2023/10/28 03:30:26;;;;;;;5.65;3.22;;;;;;;7.79;100.00;99330.16;5063751;28;20481;-74
2023/10/28 03:32:52;;;;;;;8.07;3.42;;;;;;;7.77;100.00;99333.84;5076209;28;20035;-75
2023/10/28 03:35:17;;;;;;;8.02;3.30;;;;;;;7.78;100.00;99332.91;5087056;28;20020;-75
2023/10/28 03:37:44;;;;;;;5.47;3.67;;;;;;;7.80;100.00;99329.19;5067413;28;20032;-74
2023/10/28 03:40:10;;;;;;;5.45;3.85;;;;;;;7.81;100.00;99333.53;5091332;28;20060;-75
2023/10/28 03:42:36;;;;;;;4.60;3.17;;;;;;;7.81;100.00;99328.25;5076055;28;20024;-75
2023/10/28 03:45:07;;;;;;;4.13;2.88;;;;;;;7.83;100.00;99323.72;5084480;28;20020;-76
2023/10/28 03:47:36;;;;;;;5.30;3.55;;;;;;;7.86;100.00;99331.47;5078685;28;20446;-75
2023/10/28 03:50:02;;;;;;;6.38;3.92;;;;;;;7.87;100.00;99327.88;5074402;28;20028;-75
2023/10/28 03:52:27;;;;;;;5.40;4.30;;;;;;;7.88;100.00;99326.06;5067784;28;20031;-75
2023/10/28 03:54:53;;;;;;;7.05;4.57;;;;;;;7.93;100.00;99329.25;5078809;28;20051;-75
2023/10/28 03:57:18;;;;;;;7.25;4.07;;;;;;;7.95;100.00;99327.38;5079656;28;20195;-75
2023/10/28 03:59:46;;;;;;;8.55;4.10;;;;;;;7.95;100.00;99322.94;5077959;28;20024;-75
2023/10/28 04:02:12;;;;;;;7.03;3.63;;;;;;;7.99;100.00;99324.44;5072382;28;20024;-73
2023/10/28 04:04:37;;;;;;;7.10;3.83;;;;;;;8.01;100.00;99323.47;5078154;28;20035;-73
2023/10/28 04:07:02;;;;;;;6.72;3.70;;;;;;;8.04;100.00;99320.63;5077565;28;20026;-73
2023/10/28 04:09:28;;;;;;;6.70;3.38;;;;;;;8.05;100.00;99320.53;5085451;28;20042;-75
2023/10/28 04:11:53;;;;;;;6.32;3.28;;;;;;;8.06;100.00;99313.44;5086656;28;20117;-75
2023/10/28 04:14:19;;;;;;;4.40;2.92;;;;;;;8.07;100.00;99317.78;5086210;28;20059;-75
2023/10/28 04:16:44;;;;;;;4.60;3.10;;;;;;;8.07;100.00;99307.16;5086627;28;20679;-74
2023/10/28 04:19:09;;;;;;;5.13;3.15;;;;;;;8.06;100.00;99301.03;5076416;28;20448;-73
2023/10/28 04:21:35;;;;;;;4.90;3.10;;;;;;;8.10;100.00;99309.63;5081766;28;20034;-75
2023/10/28 04:24:01;;;;;;;6.70;3.10;;;;;;;8.08;100.00;99314.19;5083608;28;20021;-75
2023/10/28 04:26:26;;;;;;;7.63;3.30;;;;;;;8.07;100.00;99305.41;5099299;28;20038;-75
2023/10/28 04:28:51;;;;;;;9.30;4.18;;;;;;;8.08;100.00;99304.44;5087672;28;20028;-74
2023/10/28 04:31:17;;;;;;;5.95;3.28;;;;;;;8.01;100.00;99295.19;5096170;28;20063;-74
2023/10/28 04:33:42;;;;;;;4.88;3.28;;;;;;;8.06;100.00;99306.31;5078764;28;20031;-74
2023/10/28 04:36:10;;;;;;;5.45;3.45;;;;;;;8.06;100.00;99306.31;5085323;28;20023;-74
2023/10/28 04:38:39;;;;;;;6.55;3.50;;;;;;;8.08;100.00;99298.28;5069002;28;20024;-74
2023/10/28 04:41:05;;;;;;;5.50;3.70;;;;;;;8.09;100.00;99310.59;5077773;28;20097;-73
2023/10/28 04:43:30;;;;;;;5.65;3.25;;;;;;;8.11;100.00;99301.59;5088674;28;20451;-73
2023/10/28 04:45:55;;;;;;;6.55;3.65;;;;;;;8.10;100.00;99302.53;5091602;28;20031;-74
2023/10/28 04:48:27;;;;;;;6.78;3.70;;;;;;;8.11;100.00;99298.06;5086195;28;20119;-73
2023/10/28 04:50:52;;;;;;;10.52;3.80;;;;;;;8.08;100.00;99293.00;5098862;28;20020;-73
2023/10/28 04:53:17;;;;;;;5.22;3.03;;;;;;;8.14;100.00;99303.19;5094989;28;20034;-73
2023/10/28 04:55:43;;;;;;;7.47;3.92;;;;;;;8.15;100.00;99300.44;5086617;28;20020;-74
2023/10/28 04:58:10;;;;;;;6.00;3.20;;;;;;;8.15;100.00;99299.56;5070010;28;20034;-74
2023/10/28 05:00:35;;;;;;;8.45;3.63;;;;;;;8.16;100.00;99299.50;5092575;28;20539;-74
2023/10/28 05:03:01;;;;;;;6.95;3.53;;;;;;;8.17;100.00;99290.59;5079355;28;20028;-74
2023/10/28 05:05:26;;;;;;;7.55;3.50;;;;;;;8.14;100.00;99288.13;5091846;28;20036;-74
2023/10/28 05:07:51;;;;;;;6.00;3.33;;;;;;;8.10;100.00;99281.31;5085444;28;20498;-75
2023/10/28 05:10:17;;;;;;;7.88;3.63;;;;;;;8.06;100.00;99286.94;5076664;28;20054;-73
2023/10/28 05:12:42;;;;;;;9.75;3.35;;;;;;;8.02;100.00;99277.47;5064345;28;20051;-74
2023/10/28 05:15:08;;;;;;;3.92;3.00;;;;;;;7.99;100.00;99286.50;5088599;28;20077;-74
2023/10/28 05:17:38;;;;;;;5.57;3.45;;;;;;;7.98;100.00;99276.81;5083688;28;20034;-74
2023/10/28 05:20:08;;;;;;;6.43;3.33;;;;;;;7.95;100.00;99277.91;5075983;28;20060;-74
2023/10/28 05:22:37;;;;;;;8.75;3.10;;;;;;;7.94;100.00;99276.19;5069365;28;20024;-74
2023/10/28 05:25:12;;;;;;;4.90;3.20;;;;;;;7.99;100.00;99291.78;5091184;28;20040;-74
2023/10/28 05:27:38;;;;;;;7.70;3.40;;;;;;;7.96;100.00;99273.44;5071461;28;20024;-73
2023/10/28 05:30:04;;;;;;;7.60;3.72;;;;;;;8.01;100.00;99276.63;5085752;28;20368;-74
2023/10/28 05:32:32;;;;;;;5.65;3.58;;;;;;;8.08;100.00;99293.00;5077379;28;20043;-75
2023/10/28 05:34:57;;;;;;;9.35;3.75;;;;;;;8.09;100.00;99290.22;5087408;28;20028;-75
2023/10/28 05:37:23;;;;;;;6.43;3.30;;;;;;;8.10;100.00;99285.78;5084972;28;20104;-73
2023/10/28 05:39:49;;;;;;;6.43;3.45;;;;;;;8.15;100.00;99283.66;5076729;28;20291;-74
2023/10/28 05:42:15;;;;;;;6.88;4.20;;;;;;;8.18;100.00;99278.19;5083426;28;20077;-74
2023/10/28 05:44:41;;;;;;;5.05;3.42;;;;;;;8.20;100.00;99297.50;5068899;28;20024;-74
2023/10/28 05:47:07;;;;;;;6.38;3.58;;;;;;;8.20;100.00;99282.44;5076351;28;20131;-74
2023/10/28 05:49:33;;;;;;;9.23;3.90;;;;;;;8.23;100.00;99294.63;5076483;28;20087;-74
2023/10/28 05:51:58;;;;;;;6.25;3.83;;;;;;;8.23;100.00;99297.28;5084052;28;20501;-75
2023/10/28 05:54:24;;;;;;;7.60;3.97;;;;;;;8.28;100.00;99299.63;5071384;28;20377;-74
2023/10/28 05:56:49;;;;;;;8.38;3.83;;;;;;;8.28;100.00;99295.19;5078126;28;20047;-74
2023/10/28 05:59:15;;;;;;;9.23;4.05;;;;;;;8.31;100.00;99294.97;5073589;28;20459;-75
2023/10/28 06:01:40;;;;;;;8.68;4.50;;;;;;;8.31;100.00;99297.63;5082421;28;20032;-73
2023/10/28 06:04:06;;;;;;;9.65;4.10;;;;;;;8.34;100.00;99301.88;5092117;28;20015;-74
2023/10/28 06:06:32;;;;;;;5.50;3.70;;;;;;;8.34;100.00;99313.31;5083716;28;20036;-74
2023/10/28 06:08:57;;;;;;;7.63;4.05;;;;;;;8.37;100.00;99309.66;5084163;28;20034;-73
2023/10/28 06:11:23;;;;;;;9.38;3.60;;;;;;;8.36;100.00;99307.91;5081143;28;20021;-73
2023/10/28 06:13:49;;;;;;;9.23;4.25;;;;;;;8.35;100.00;99309.72;5078756;28;20035;-74
2023/10/28 06:16:14;;;;;;;7.10;3.80;;;;;;;8.38;100.00;99311.34;5087461;28;20038;-74
2023/10/28 06:18:40;;;;;;;6.85;4.05;;;;;;;8.38;100.00;99312.22;5082911;28;20028;-74
2023/10/28 06:21:08;;;;;;;6.03;3.47;;;;;;;8.40;100.00;99323.56;5084377;28;20528;-75
2023/10/28 06:23:33;;;;;;;9.50;3.90;;;;;;;8.41;100.00;99324.41;5080791;28;20024;-73
2023/10/28 06:25:59;;;;;;;8.32;4.00;;;;;;;8.41;100.00;99325.28;5085510;28;20031;-74
2023/10/28 06:28:24;;;;;;;9.02;3.83;;;;;;;8.45;100.00;99323.28;5087513;28;20033;-73
2023/10/28 06:30:50;;;;;;;6.97;3.67;;;;;;;8.44;100.00;99325.06;5082286;28;20015;-74
2023/10/28 06:33:17;;;;;;;8.13;3.85;;;;;;;8.45;100.00;99328.56;5083970;28;20237;-74
2023/10/28 06:35:44;;;;;;;7.15;3.60;;;;;;;8.40;100.00;99328.00;5084748;28;20024;-74
2023/10/28 06:38:09;;;;;;;10.10;3.67;;;;;;;8.44;100.00;99325.06;5081338;28;20024;-74
2023/10/28 06:40:37;;;;;;;8.10;4.20;;;;;;;8.44;100.00;99327.72;5080648;28;20017;-74
2023/10/28 06:43:04;;;;;;;5.97;3.60;;;;;;;8.48;100.00;99318.63;5070437;28;20130;-74
2023/10/28 06:45:30;;;;;;;7.13;3.88;;;;;;;8.49;100.00;99316.81;5081842;28;20019;-75
2023/10/28 06:47:55;;;;;;;6.63;3.60;;;;;;;8.52;100.00;99321.88;5081557;28;20205;-76
2023/10/28 06:50:21;;;;;;;5.32;3.40;;;;;;;8.54;100.00;99320.00;5069205;28;20227;-74
2023/10/28 06:52:49;;;;;;;7.25;3.42;;;;;;;8.55;100.00;99318.19;5080052;28;20036;-73
2023/10/28 06:55:16;;;;;;;5.82;3.42;;;;;;;8.56;100.00;99317.22;5074224;28;20024;-74
2023/10/28 06:57:42;;;;;;;6.55;3.30;;;;;;;8.57;100.00;99322.44;5079570;28;20043;-74
2023/10/28 07:00:15;;;;;;;9.75;3.53;;;;;;;8.57;100.00;99318.94;5089267;28;20020;-75
2023/10/28 07:02:41;;;;;;;;;;;;;;;8.62;100.00;99319.50;5098476;28;20035;-74
2023/10/28 07:05:08;;;;;;;6.18;3.22;;;;;;;8.56;100.00;99320.72;5070781;28;19930;-76
2023/10/28 07:07:35;;;;;;;8.40;3.40;;;;;;;8.53;100.00;99315.66;5087939;28;20081;-75
2023/10/28 07:10:01;;;;;;;8.82;3.70;;;;;;;8.54;100.00;99314.69;5084888;28;20060;-75
2023/10/28 07:12:28;;;;;;;6.53;3.30;;;;;;;8.59;100.00;99322.34;5076455;28;20074;-76
2023/10/28 07:14:54;;;;;;;8.07;3.75;;;;;;;8.58;100.00;99312.69;5079007;28;20059;-75
2023/10/28 07:17:19;;;;;;;7.25;3.80;;;;;;;8.70;100.00;99327.78;5066835;28;20064;-75
2023/10/28 07:19:45;;;;;;;5.07;3.28;;;;;;;8.73;100.00;99338.16;5064409;28;20487;-75
2023/10/28 07:22:10;;;;;;;6.20;3.45;;;;;;;8.71;100.00;99335.63;5076783;28;20028;-75
2023/10/28 07:24:35;;;;;;;7.80;3.42;;;;;;;8.72;100.00;99336.47;5080117;28;20024;-74
2023/10/28 07:27:04;;;;;;;11.48;4.43;;;;;;;8.75;100.00;99344.25;5066677;28;20012;-74
2023/10/28 07:29:30;;;;;;;5.10;3.53;;;;;;;8.73;100.00;99336.34;5076141;28;20035;-73
2023/10/28 07:31:56;;;;;;;8.48;3.72;;;;;;;8.77;100.00;99342.31;5067398;28;20020;-74
2023/10/28 07:34:22;;;;;;;6.78;3.30;;;;;;;8.85;100.00;99342.66;5082977;28;20506;-75
2023/10/28 07:36:47;;;;;;;7.03;3.45;;;;;;;8.90;100.00;99337.91;5064409;28;20024;-74
2023/10/28 07:39:12;;;;;;;6.07;3.40;;;;;;;8.95;100.00;99342.91;5069390;28;20039;-75
2023/10/28 07:41:38;;;;;;;5.43;3.45;;;;;;;9.03;100.00;99342.34;5086105;28;20435;-75
2023/10/28 07:44:05;;;;;;;7.60;3.20;;;;;;;9.04;100.00;99344.91;5076637;28;20218;-75
2023/10/28 07:46:30;;;;;;;7.35;3.30;;;;;;;9.02;100.00;99344.16;5078357;28;20044;-75
2023/10/28 07:48:56;;;;;;;7.60;3.38;;;;;;;9.03;100.00;99351.19;5068431;28;20036;-73
2023/10/28 07:51:22;;;;;;;4.50;2.90;;;;;;;9.10;100.00;99348.94;5072886;28;20036;-75
2023/10/28 07:53:51;;;;;;;6.18;2.83;;;;;;;9.20;100.00;99356.19;5084478;28;20213;-74
2023/10/28 07:56:17;;;;;;;4.43;2.72;;;;;;;9.30;100.00;99345.78;5082934;28;20027;-74
2023/10/28 07:58:47;;;;;;;7.43;2.90;;;;;;;9.45;100.00;99358.00;5086844;28;20228;-75
2023/10/28 08:01:14;;;;;;;9.27;2.92;;;;;;;9.51;100.00;99366.47;5077116;28;20055;-74
2023/10/28 08:03:43;;;;;;;8.98;4.00;;;;;;;9.55;100.00;99368.81;5071565;28;20047;-74
2023/10/28 08:06:10;;;;;;;7.32;2.80;;;;;;;9.61;100.00;99367.53;5076727;28;20042;-75
2023/10/28 08:08:35;;;;;;;8.63;2.83;;;;;;;9.64;100.00;99372.63;5067009;28;20199;-74
2023/10/28 08:11:02;;;;;;;6.25;2.50;;;;;;;9.65;100.00;99369.00;5075021;28;20070;-74
2023/10/28 08:13:28;;;;;;;6.97;2.42;;;;;;;9.69;100.00;99376.66;5082147;28;20032;-74
2023/10/28 08:15:54;;;;;;;9.30;3.10;;;;;;;9.87;100.00;99373.66;5069442;28;20043;-75
2023/10/28 08:18:19;;;;;;;8.60;4.35;;;;;;;9.90;100.00;99373.44;5076157;28;20033;-73
2023/10/28 08:20:45;;;;;;;8.68;3.72;;;;;;;9.96;100.00;99380.97;5070624;28;20036;-75
2023/10/28 08:23:11;;;;;;;6.05;2.70;;;;;;;10.01;100.00;99380.66;5083920;28;20076;-74
2023/10/28 08:25:36;;;;;;;8.32;3.00;;;;;;;10.00;100.00;99374.50;5063625;28;20042;-74
2023/10/28 08:28:02;;;;;;;7.93;3.72;;;;;;;10.04;100.00;99378.63;5077604;28;20024;-74
2023/10/28 08:30:28;;;;;;;6.85;3.10;;;;;;;10.14;100.00;99382.31;5079517;28;20138;-73
2023/10/28 08:32:53;;;;;;;9.55;2.92;;;;;;;10.18;100.00;99388.25;5079915;28;20586;-73
2023/10/28 08:35:19;;;;;;;5.88;2.50;;;;;;;10.18;100.00;99389.09;5082859;28;20050;-74
2023/10/28 08:37:46;;;;;;;7.35;2.90;;;;;;;10.16;100.00;99393.69;5074762;28;20021;-74
2023/10/28 08:40:12;;;;;;;5.03;2.60;;;;;;;10.20;100.00;99396.97;5075893;28;20016;-73
2023/10/28 08:42:38;;;;;;;6.55;2.80;;;;;;;10.20;100.00;99399.66;5082940;28;20901;-73
2023/10/28 08:45:08;;;;;;;6.95;2.70;;;;;;;10.22;100.00;99400.38;5075066;28;20234;-72
2023/10/28 08:47:38;;;;;;;6.95;2.50;;;;;;;10.26;100.00;99396.56;5075057;28;20313;-72
2023/10/28 08:50:06;;;;;;;7.35;3.20;;;;;;;10.39;100.00;99408.00;5076736;28;20038;-73
2023/10/28 08:52:35;;;;;;;6.95;2.60;;;;;;;10.48;100.00;99417.13;5076568;28;20042;-73
2023/10/28 08:55:02;;;;;;;6.20;2.95;;;;;;;10.58;100.00;99406.66;5080618;28;20410;-72
2023/10/28 08:57:29;;;;;;;6.88;2.72;;;;;;;10.68;100.00;99407.66;5067274;28;20078;-72
2023/10/28 08:59:54;;;;;;;7.93;2.53;;;;;;;10.63;100.00;99392.06;5075851;28;20300;-73
2023/10/28 09:02:20;;;;;;;6.78;2.58;;;;;;;10.71;100.00;99404.78;5085458;28;20036;-74
2023/10/28 09:04:46;;;;;;;7.47;2.40;;;;;;;10.69;100.00;99410.22;5083996;28;20024;-74
2023/10/28 09:07:11;;;;;;;5.53;2.65;;;;;;;10.74;100.00;99409.88;5074565;28;20027;-77
2023/10/28 09:09:39;;;;;;;5.90;2.83;;;;;;;10.88;100.00;99417.69;5088321;28;20486;-74
2023/10/28 09:12:08;;;;;;;5.45;2.88;;;;;;;10.97;100.00;99422.31;5080003;28;20028;-73
2023/10/28 09:14:38;;;;;;;6.93;2.90;;;;;;;10.96;100.00;99420.63;5083495;28;20028;-73
2023/10/28 09:17:03;;;;;;;8.43;2.30;;;;;;;10.90;100.00;99429.06;5079259;28;20093;-73
2023/10/28 09:19:29;;;;;;;7.18;3.08;;;;;;;10.93;100.00;99423.50;5074244;28;20028;-73
2023/10/28 09:21:55;;;;;;;6.30;2.97;;;;;;;11.00;100.00;99421.25;5077593;28;20040;-73
2023/10/28 09:24:22;;;;;;;6.10;2.40;;;;;;;11.10;100.00;99424.91;5089163;28;20031;-74
2023/10/28 09:26:50;;;;;;;4.70;2.38;;;;;;;11.16;100.00;99421.78;5081404;28;20028;-74
2023/10/28 09:29:30;;;;;;;9.80;3.08;;;;;;;11.37;100.00;99421.09;5073556;28;20154;-74
2023/10/28 09:32:06;;;;;;;5.70;2.70;;;;;;;11.53;100.00;99420.75;5078094;28;20051;-73
2023/10/28 09:34:41;;;;;;;5.95;2.80;;;;;;;11.67;100.00;99423.22;5078715;28;20050;-73
2023/10/28 09:37:10;;;;;;;5.20;2.60;;;;;;;11.81;100.00;99416.81;5077619;28;20085;-74
2023/10/28 09:39:36;;;;;;;6.50;2.45;;;;;;;11.98;100.00;99423.50;5081176;28;20122;-74
2023/10/28 09:42:06;;;;;;;4.70;2.30;;;;;;;12.05;100.00;99422.06;5082969;28;20111;-72
2023/10/28 09:44:34;;;;;;;4.95;2.10;;;;;;;12.03;100.00;99423.97;5083686;28;20514;-73
2023/10/28 09:47:07;;;;;;;5.88;2.25;;;;;;;12.06;100.00;99427.25;5087265;28;20058;-73
2023/10/28 09:49:35;;;;;;;4.63;2.28;;;;;;;12.14;100.00;99424.81;5078432;28;20493;-73
2023/10/28 09:52:06;;;;;;;7.00;2.30;;;;;;;12.18;100.00;99423.63;5083731;28;20032;-73
2023/10/28 09:54:35;;;;;;;5.43;2.00;;;;;;;12.20;100.00;99426.16;5079686;28;20075;-75
2023/10/28 09:57:01;;;;;;;6.40;2.00;;;;;;;12.13;100.00;99425.81;5077392;28;20287;-74
2023/10/28 09:59:31;;;;;;;5.25;2.05;;;;;;;12.10;100.00;99426.03;5077471;28;20040;-75
2023/10/28 10:02:19;;;;;;;5.45;2.28;;;;;;;11.95;100.00;99430.78;5084051;28;20415;-74
2023/10/28 10:04:58;;;;;;;7.97;2.17;;;;;;;11.95;100.00;99424.59;5079238;28;20114;-74
2023/10/28 10:07:24;;;;;;;4.82;2.25;;;;;;;11.92;100.00;99422.19;5081065;28;20031;-74
2023/10/28 10:09:49;;;;;;;9.10;2.10;;;;;;;11.88;100.00;99423.41;5083517;28;20897;-73
2023/10/28 10:12:15;;;;;;;5.75;2.13;;;;;;;11.77;100.00;99429.53;5077152;28;20016;-74
2023/10/28 10:14:45;;;;;;;5.03;1.95;;;;;;;11.72;100.00;99426.38;5085880;28;20084;-75
2023/10/28 10:17:22;;;;;;;6.32;2.17;;;;;;;11.72;100.00;99443.22;5080892;28;20043;-75
2023/10/28 10:19:48;;;;;;;5.50;1.95;;;;;;;11.90;100.00;99434.78;5082618;28;20016;-75
2023/10/28 10:22:18;;;;;;;4.85;2.85;;;;;;;12.34;100.00;99438.41;5091396;28;20028;-74
2023/10/28 10:24:50;;;;;;;6.90;2.28;;;;;;;12.58;100.00;99433.75;5081130;28;20026;-73
2023/10/28 10:27:32;;;;;;;4.85;2.10;;;;;;;12.56;100.00;99432.16;5078853;28;20514;-75
2023/10/28 10:30:05;;;;;;;8.55;2.67;;;;;;;12.68;100.00;99440.03;5076680;28;20020;-76
2023/10/28 10:32:40;;;;;;;7.70;2.83;;;;;;;12.95;100.00;99438.72;5074429;28;21636;-75
2023/10/28 10:35:33;;;;;;;6.80;2.45;;;;;;;13.07;100.00;99423.47;5087431;28;20100;-76
2023/10/28 10:38:08;;;;;;;6.93;2.43;;;;;;;13.21;100.00;99434.72;5077343;28;20035;-77
2023/10/28 10:40:58;;;;;;;7.28;2.42;;;;;;;13.13;100.00;99433.69;5084536;28;20038;-76
2023/10/28 10:43:29;;;;;;;9.18;2.50;;;;;;;12.98;100.00;99438.47;5076911;28;20244;-77
2023/10/28 10:45:56;;;;;;;5.18;2.20;;;;;;;13.01;100.00;99443.56;5088152;28;20081;-76
2023/10/28 10:48:21;;;;;;;6.03;2.35;;;;;;;13.02;100.00;99439.06;5074498;28;20475;-77
2023/10/28 10:50:47;;;;;;;9.25;2.53;;;;;;;12.90;100.00;99428.41;5069567;28;20029;-78
2023/10/28 10:53:13;;;;;;;6.60;2.10;;;;;;;12.89;100.00;99440.06;5084201;28;20439;-80
2023/10/28 10:55:40;;;;;;;4.43;2.38;;;;;;;13.02;100.00;99434.56;5075188;28;20428;-79
2023/10/28 10:58:05;;;;;;;6.68;2.58;;;;;;;13.22;100.00;99435.56;5065842;28;20406;-77
2023/10/28 11:00:32;;;;;;;7.90;2.75;;;;;;;13.29;100.00;99433.25;5078171;28;20204;-80
2023/10/28 11:02:59;;;;;;;8.30;2.60;;;;;;;13.21;100.00;99442.75;5070073;28;20025;-78
2023/10/28 11:05:28;;;;;;;7.25;2.45;;;;;;;13.11;100.00;99435.63;5098819;28;20314;-76
2023/10/28 11:07:53;;;;;;;6.20;2.15;;;;;;;13.18;100.00;99428.78;5074628;28;20024;-76
2023/10/28 11:10:22;;;;;;;10.40;3.58;;;;;;;13.13;99.89;99417.66;5082435;28;20044;-78
2023/10/28 11:12:49;;;;;;;6.90;2.45;;;;;;;13.13;99.02;99423.84;5071465;28;20024;-79
2023/10/28 11:15:15;;;;;;;7.22;2.50;;;;;;;13.26;98.82;99426.34;5076782;28;20039;-79
2023/10/28 11:17:40;;;;;;;7.63;2.15;;;;;;;13.34;98.05;99420.38;5080599;28;20392;-77
2023/10/28 11:20:06;;;;;;;9.32;2.45;;;;;;;13.40;98.20;99417.16;5063899;28;20048;-75
2023/10/28 11:22:32;;;;;;;11.68;2.97;;;;;;;13.63;96.59;99418.72;5065498;28;20502;-77
2023/10/28 11:24:58;;;;;;;8.60;2.50;;;;;;;13.82;96.13;99420.63;5066203;28;20063;-77
2023/10/28 11:27:25;;;;;;;8.23;2.30;;;;;;;13.78;96.06;99431.72;5070516;28;20036;-78
2023/10/28 11:29:51;;;;;;;8.73;2.60;;;;;;;13.53;96.24;99433.00;5064087;28;20064;-76